sensor_id;sensor_type;location;lat;lon;timestamp;P1;durP1;ratioP1;P2;durP2;ratioP2
6223;SDS011;3145;42.726;23.342;2023-07-13T00:01:31;10.97;;;8.20;;
6223;SDS011;3145;42.726;23.342;2023-07-13T00:03:58;9.70;;;8.73;;
6223;SDS011;3145;42.726;23.342;2023-07-13T00:06:26;11.57;;;9.20;;
6223;SDS011;3145;42.726;23.342;2023-07-13T00:08:55;10.07;;;8.67;;
6223;SDS011;3145;42.726;23.342;2023-07-13T00:11:22;10.53;;;9.57;;
6223;SDS011;3145;42.726;23.342;2023-07-13T00:13:48;11.70;;;9.10;;
6223;SDS011;3145;42.726;23.342;2023-07-13T00:16:16;10.03;;;9.13;;
6223;SDS011;3145;42.726;23.342;2023-07-13T00:18:44;13.63;;;9.47;;
6223;SDS011;3145;42.726;23.342;2023-07-13T00:21:10;9.77;;;8.73;;
6223;SDS011;3145;42.726;23.342;2023-07-13T00:23:39;9.53;;;7.70;;
6223;SDS011;3145;42.726;23.342;2023-07-13T00:26:08;10.43;;;8.77;;
6223;SDS011;3145;42.726;23.342;2023-07-13T00:28:37;9.40;;;8.60;;
6223;SDS011;3145;42.726;23.342;2023-07-13T00:31:05;9.30;;;8.47;;
6223;SDS011;3145;42.726;23.342;2023-07-13T00:33:33;9.73;;;8.83;;
6223;SDS011;3145;42.726;23.342;2023-07-13T00:36:00;9.53;;;8.73;;
6223;SDS011;3145;42.726;23.342;2023-07-13T00:38:26;9.30;;;8.40;;
6223;SDS011;3145;42.726;23.342;2023-07-13T00:40:53;10.10;;;8.53;;
6223;SDS011;3145;42.726;23.342;2023-07-13T00:43:21;9.37;;;8.60;;
6223;SDS011;3145;42.726;23.342;2023-07-13T00:48:41;10.10;;;8.87;;
6223;SDS011;3145;42.726;23.342;2023-07-13T00:51:11;9.63;;;8.40;;
6223;SDS011;3145;42.726;23.342;2023-07-13T00:53:39;9.03;;;8.10;;
6223;SDS011;3145;42.726;23.342;2023-07-13T00:56:06;10.33;;;9.20;;
6223;SDS011;3145;42.726;23.342;2023-07-13T00:58:33;9.83;;;8.83;;
6223;SDS011;3145;42.726;23.342;2023-07-13T01:01:01;10.50;;;8.53;;
6223;SDS011;3145;42.726;23.342;2023-07-13T01:03:28;10.83;;;8.83;;
6223;SDS011;3145;42.726;23.342;2023-07-13T01:05:56;9.90;;;9.07;;
6223;SDS011;3145;42.726;23.342;2023-07-13T01:08:23;11.33;;;9.00;;
6223;SDS011;3145;42.726;23.342;2023-07-13T01:10:51;11.00;;;9.67;;
6223;SDS011;3145;42.726;23.342;2023-07-13T01:13:18;10.40;;;9.30;;
6223;SDS011;3145;42.726;23.342;2023-07-13T01:15:46;10.00;;;9.03;;
6223;SDS011;3145;42.726;23.342;2023-07-13T01:18:16;10.77;;;9.83;;
6223;SDS011;3145;42.726;23.342;2023-07-13T01:20:51;11.43;;;9.77;;
6223;SDS011;3145;42.726;23.342;2023-07-13T01:23:19;10.37;;;9.30;;
6223;SDS011;3145;42.726;23.342;2023-07-13T01:25:46;10.97;;;9.67;;
6223;SDS011;3145;42.726;23.342;2023-07-13T01:28:13;10.13;;;9.13;;
6223;SDS011;3145;42.726;23.342;2023-07-13T01:30:42;13.47;;;9.40;;
6223;SDS011;3145;42.726;23.342;2023-07-13T01:33:10;11.27;;;10.20;;
6223;SDS011;3145;42.726;23.342;2023-07-13T01:35:39;10.30;;;9.50;;
6223;SDS011;3145;42.726;23.342;2023-07-13T01:38:07;10.47;;;9.37;;
6223;SDS011;3145;42.726;23.342;2023-07-13T01:40:36;10.67;;;9.70;;
6223;SDS011;3145;42.726;23.342;2023-07-13T01:43:03;10.77;;;9.80;;
6223;SDS011;3145;42.726;23.342;2023-07-13T01:45:30;11.23;;;9.90;;
6223;SDS011;3145;42.726;23.342;2023-07-13T01:47:57;10.97;;;9.07;;
6223;SDS011;3145;42.726;23.342;2023-07-13T01:50:24;10.53;;;9.57;;
6223;SDS011;3145;42.726;23.342;2023-07-13T01:52:51;9.90;;;9.10;;
6223;SDS011;3145;42.726;23.342;2023-07-13T01:55:19;10.33;;;9.33;;
6223;SDS011;3145;42.726;23.342;2023-07-13T01:57:47;11.47;;;10.23;;
6223;SDS011;3145;42.726;23.342;2023-07-13T02:00:14;10.93;;;9.83;;
6223;SDS011;3145;42.726;23.342;2023-07-13T02:02:41;10.23;;;9.27;;
6223;SDS011;3145;42.726;23.342;2023-07-13T02:05:09;10.17;;;9.27;;
6223;SDS011;3145;42.726;23.342;2023-07-13T02:07:36;10.23;;;9.27;;
6223;SDS011;3145;42.726;23.342;2023-07-13T02:10:03;10.70;;;9.67;;
6223;SDS011;3145;42.726;23.342;2023-07-13T02:12:32;10.60;;;9.73;;
6223;SDS011;3145;42.726;23.342;2023-07-13T02:14:58;11.13;;;9.47;;
6223;SDS011;3145;42.726;23.342;2023-07-13T02:17:25;12.70;;;10.27;;
6223;SDS011;3145;42.726;23.342;2023-07-13T02:19:53;11.47;;;10.37;;
6223;SDS011;3145;42.726;23.342;2023-07-13T02:22:20;11.07;;;9.97;;
6223;SDS011;3145;42.726;23.342;2023-07-13T02:24:47;10.20;;;9.40;;
6223;SDS011;3145;42.726;23.342;2023-07-13T02:27:13;13.13;;;9.53;;
6223;SDS011;3145;42.726;23.342;2023-07-13T02:29:42;11.20;;;9.67;;
6223;SDS011;3145;42.726;23.342;2023-07-13T02:32:08;11.47;;;9.70;;
6223;SDS011;3145;42.726;23.342;2023-07-13T02:34:35;10.50;;;9.50;;
6223;SDS011;3145;42.726;23.342;2023-07-13T02:37:02;10.27;;;9.27;;
6223;SDS011;3145;42.726;23.342;2023-07-13T02:39:29;11.57;;;10.37;;
6223;SDS011;3145;42.726;23.342;2023-07-13T02:41:58;11.20;;;10.17;;
6223;SDS011;3145;42.726;23.342;2023-07-13T02:44:25;11.00;;;10.00;;
6223;SDS011;3145;42.726;23.342;2023-07-13T02:46:53;9.80;;;8.90;;
6223;SDS011;3145;42.726;23.342;2023-07-13T02:49:20;10.70;;;9.80;;
6223;SDS011;3145;42.726;23.342;2023-07-13T02:51:47;11.50;;;9.47;;
6223;SDS011;3145;42.726;23.342;2023-07-13T02:54:14;11.30;;;10.30;;
6223;SDS011;3145;42.726;23.342;2023-07-13T02:56:40;11.23;;;10.10;;
6223;SDS011;3145;42.726;23.342;2023-07-13T02:59:08;11.17;;;10.07;;
6223;SDS011;3145;42.726;23.342;2023-07-13T03:01:36;9.77;;;8.77;;
6223;SDS011;3145;42.726;23.342;2023-07-13T03:04:04;10.87;;;9.50;;
6223;SDS011;3145;42.726;23.342;2023-07-13T03:06:31;10.90;;;9.67;;
6223;SDS011;3145;42.726;23.342;2023-07-13T03:08:58;10.70;;;9.70;;
6223;SDS011;3145;42.726;23.342;2023-07-13T03:11:26;10.27;;;9.13;;
6223;SDS011;3145;42.726;23.342;2023-07-13T03:13:53;10.47;;;9.20;;
6223;SDS011;3145;42.726;23.342;2023-07-13T03:16:20;10.47;;;9.47;;
6223;SDS011;3145;42.726;23.342;2023-07-13T03:18:47;10.57;;;9.57;;
6223;SDS011;3145;42.726;23.342;2023-07-13T03:21:15;12.30;;;10.17;;
6223;SDS011;3145;42.726;23.342;2023-07-13T03:23:42;19.23;;;10.80;;
6223;SDS011;3145;42.726;23.342;2023-07-13T03:26:10;10.83;;;9.80;;
6223;SDS011;3145;42.726;23.342;2023-07-13T03:28:38;10.77;;;9.37;;
6223;SDS011;3145;42.726;23.342;2023-07-13T03:31:07;14.10;;;10.97;;
6223;SDS011;3145;42.726;23.342;2023-07-13T03:33:35;16.07;;;10.73;;
6223;SDS011;3145;42.726;23.342;2023-07-13T03:36:03;16.30;;;12.70;;
6223;SDS011;3145;42.726;23.342;2023-07-13T03:38:32;14.63;;;11.67;;
6223;SDS011;3145;42.726;23.342;2023-07-13T03:40:59;19.97;;;12.40;;
6223;SDS011;3145;42.726;23.342;2023-07-13T03:43:26;15.03;;;13.13;;
6223;SDS011;3145;42.726;23.342;2023-07-13T03:45:53;18.50;;;13.23;;
6223;SDS011;3145;42.726;23.342;2023-07-13T03:48:19;12.97;;;11.77;;
6223;SDS011;3145;42.726;23.342;2023-07-13T03:50:46;13.27;;;11.83;;
6223;SDS011;3145;42.726;23.342;2023-07-13T03:53:14;15.10;;;11.77;;
6223;SDS011;3145;42.726;23.342;2023-07-13T03:55:42;17.97;;;11.10;;
6223;SDS011;3145;42.726;23.342;2023-07-13T03:58:26;15.00;;;10.57;;
6223;SDS011;3145;42.726;23.342;2023-07-13T04:00:54;13.07;;;10.10;;
6223;SDS011;3145;42.726;23.342;2023-07-13T04:03:22;13.40;;;10.33;;
6223;SDS011;3145;42.726;23.342;2023-07-13T04:05:49;10.20;;;9.17;;
6223;SDS011;3145;42.726;23.342;2023-07-13T04:08:16;11.77;;;9.63;;
6223;SDS011;3145;42.726;23.342;2023-07-13T04:10:44;12.57;;;10.50;;
6223;SDS011;3145;42.726;23.342;2023-07-13T04:13:10;15.23;;;9.20;;
6223;SDS011;3145;42.726;23.342;2023-07-13T04:15:38;14.65;;;9.80;;
6223;SDS011;3145;42.726;23.342;2023-07-13T04:18:05;17.33;;;9.63;;
6223;SDS011;3145;42.726;23.342;2023-07-13T04:20:32;16.00;;;10.38;;
6223;SDS011;3145;42.726;23.342;2023-07-13T04:22:58;23.00;;;10.38;;
6223;SDS011;3145;42.726;23.342;2023-07-13T04:25:25;18.05;;;9.73;;
6223;SDS011;3145;42.726;23.342;2023-07-13T04:27:54;24.33;;;9.98;;
6223;SDS011;3145;42.726;23.342;2023-07-13T04:30:21;10.15;;;8.93;;
6223;SDS011;3145;42.726;23.342;2023-07-13T04:32:50;17.70;;;9.30;;
6223;SDS011;3145;42.726;23.342;2023-07-13T04:35:18;16.55;;;9.98;;
6223;SDS011;3145;42.726;23.342;2023-07-13T04:37:47;12.50;;;9.40;;
6223;SDS011;3145;42.726;23.342;2023-07-13T04:40:15;15.07;;;8.43;;
6223;SDS011;3145;42.726;23.342;2023-07-13T04:42:42;10.98;;;8.75;;
6223;SDS011;3145;42.726;23.342;2023-07-13T04:45:11;12.07;;;10.70;;
6223;SDS011;3145;42.726;23.342;2023-07-13T04:47:38;15.60;;;11.25;;
6223;SDS011;3145;42.726;23.342;2023-07-13T04:50:05;14.25;;;12.32;;
6223;SDS011;3145;42.726;23.342;2023-07-13T04:52:32;19.52;;;11.18;;
6223;SDS011;3145;42.726;23.342;2023-07-13T04:54:59;14.13;;;10.48;;
6223;SDS011;3145;42.726;23.342;2023-07-13T04:57:27;15.30;;;10.75;;
6223;SDS011;3145;42.726;23.342;2023-07-13T04:59:54;12.55;;;10.55;;
6223;SDS011;3145;42.726;23.342;2023-07-13T05:02:22;10.07;;;9.13;;
6223;SDS011;3145;42.726;23.342;2023-07-13T05:04:49;12.40;;;10.15;;
6223;SDS011;3145;42.726;23.342;2023-07-13T05:07:16;10.02;;;8.98;;
6223;SDS011;3145;42.726;23.342;2023-07-13T05:09:42;11.20;;;10.27;;
6223;SDS011;3145;42.726;23.342;2023-07-13T05:12:09;12.43;;;11.13;;
6223;SDS011;3145;42.726;23.342;2023-07-13T05:14:36;12.30;;;11.18;;
6223;SDS011;3145;42.726;23.342;2023-07-13T05:17:03;12.77;;;11.02;;
6223;SDS011;3145;42.726;23.342;2023-07-13T05:19:31;14.15;;;11.43;;
6223;SDS011;3145;42.726;23.342;2023-07-13T05:21:58;17.02;;;11.32;;
6223;SDS011;3145;42.726;23.342;2023-07-13T05:24:25;13.60;;;9.90;;
6223;SDS011;3145;42.726;23.342;2023-07-13T05:26:52;12.02;;;10.73;;
6223;SDS011;3145;42.726;23.342;2023-07-13T05:29:19;19.85;;;10.32;;
6223;SDS011;3145;42.726;23.342;2023-07-13T05:31:46;13.23;;;10.02;;
6223;SDS011;3145;42.726;23.342;2023-07-13T05:34:13;12.27;;;9.88;;
6223;SDS011;3145;42.726;23.342;2023-07-13T05:36:41;10.07;;;9.15;;
6223;SDS011;3145;42.726;23.342;2023-07-13T05:39:08;18.35;;;9.18;;
6223;SDS011;3145;42.726;23.342;2023-07-13T05:41:36;10.55;;;9.07;;
6223;SDS011;3145;42.726;23.342;2023-07-13T05:44:03;10.55;;;9.23;;
6223;SDS011;3145;42.726;23.342;2023-07-13T05:46:30;11.38;;;10.25;;
6223;SDS011;3145;42.726;23.342;2023-07-13T05:48:57;11.45;;;9.52;;
6223;SDS011;3145;42.726;23.342;2023-07-13T05:51:23;15.35;;;9.18;;
6223;SDS011;3145;42.726;23.342;2023-07-13T05:53:51;11.50;;;9.05;;
6223;SDS011;3145;42.726;23.342;2023-07-13T05:56:18;22.63;;;10.07;;
6223;SDS011;3145;42.726;23.342;2023-07-13T05:58:45;15.30;;;9.45;;
6223;SDS011;3145;42.726;23.342;2023-07-13T06:01:12;16.52;;;8.85;;
6223;SDS011;3145;42.726;23.342;2023-07-13T06:03:40;16.13;;;9.23;;
6223;SDS011;3145;42.726;23.342;2023-07-13T06:06:08;18.52;;;10.07;;
6223;SDS011;3145;42.726;23.342;2023-07-13T06:08:36;13.27;;;11.77;;
6223;SDS011;3145;42.726;23.342;2023-07-13T06:11:05;15.02;;;10.90;;
6223;SDS011;3145;42.726;23.342;2023-07-13T06:13:33;13.15;;;11.80;;
6223;SDS011;3145;42.726;23.342;2023-07-13T06:16:00;14.20;;;11.88;;
6223;SDS011;3145;42.726;23.342;2023-07-13T06:18:29;15.90;;;10.43;;
6223;SDS011;3145;42.726;23.342;2023-07-13T06:20:55;16.13;;;11.55;;
6223;SDS011;3145;42.726;23.342;2023-07-13T06:23:22;13.98;;;10.52;;
6223;SDS011;3145;42.726;23.342;2023-07-13T06:25:49;24.50;;;11.43;;
6223;SDS011;3145;42.726;23.342;2023-07-13T06:28:17;12.13;;;10.85;;
6223;SDS011;3145;42.726;23.342;2023-07-13T06:30:44;16.40;;;12.57;;
6223;SDS011;3145;42.726;23.342;2023-07-13T06:33:11;15.82;;;12.68;;
6223;SDS011;3145;42.726;23.342;2023-07-13T06:35:38;16.00;;;11.93;;
6223;SDS011;3145;42.726;23.342;2023-07-13T06:38:04;12.75;;;11.45;;
6223;SDS011;3145;42.726;23.342;2023-07-13T06:40:31;15.30;;;12.23;;
6223;SDS011;3145;42.726;23.342;2023-07-13T06:42:58;13.15;;;11.85;;
6223;SDS011;3145;42.726;23.342;2023-07-13T06:45:26;13.25;;;11.85;;
6223;SDS011;3145;42.726;23.342;2023-07-13T06:47:53;21.27;;;10.60;;
6223;SDS011;3145;42.726;23.342;2023-07-13T06:50:20;14.02;;;10.55;;
6223;SDS011;3145;42.726;23.342;2023-07-13T06:52:46;12.85;;;10.25;;
6223;SDS011;3145;42.726;23.342;2023-07-13T06:55:13;15.05;;;10.27;;
6223;SDS011;3145;42.726;23.342;2023-07-13T06:57:40;13.57;;;9.45;;
6223;SDS011;3145;42.726;23.342;2023-07-13T07:00:07;10.98;;;9.45;;
6223;SDS011;3145;42.726;23.342;2023-07-13T07:02:36;10.85;;;9.75;;
6223;SDS011;3145;42.726;23.342;2023-07-13T07:05:03;11.38;;;10.15;;
6223;SDS011;3145;42.726;23.342;2023-07-13T07:07:30;11.40;;;10.23;;
6223;SDS011;3145;42.726;23.342;2023-07-13T07:09:57;10.55;;;9.55;;
6223;SDS011;3145;42.726;23.342;2023-07-13T07:12:23;15.13;;;9.85;;
6223;SDS011;3145;42.726;23.342;2023-07-13T07:14:50;12.13;;;9.98;;
6223;SDS011;3145;42.726;23.342;2023-07-13T07:17:20;13.32;;;9.40;;
6223;SDS011;3145;42.726;23.342;2023-07-13T07:19:48;12.55;;;9.73;;
6223;SDS011;3145;42.726;23.342;2023-07-13T07:22:15;11.95;;;10.10;;
6223;SDS011;3145;42.726;23.342;2023-07-13T07:24:42;12.75;;;11.35;;
6223;SDS011;3145;42.726;23.342;2023-07-13T07:27:08;12.00;;;10.10;;
6223;SDS011;3145;42.726;23.342;2023-07-13T07:29:35;50.05;;;18.50;;
6223;SDS011;3145;42.726;23.342;2023-07-13T07:32:02;26.00;;;13.63;;
6223;SDS011;3145;42.726;23.342;2023-07-13T07:34:29;15.30;;;9.82;;
6223;SDS011;3145;42.726;23.342;2023-07-13T07:36:59;22.45;;;11.23;;
6223;SDS011;3145;42.726;23.342;2023-07-13T07:39:27;12.88;;;8.70;;
6223;SDS011;3145;42.726;23.342;2023-07-13T07:41:54;9.55;;;8.70;;
6223;SDS011;3145;42.726;23.342;2023-07-13T07:44:21;11.70;;;8.88;;
6223;SDS011;3145;42.726;23.342;2023-07-13T07:46:48;16.38;;;9.73;;
6223;SDS011;3145;42.726;23.342;2023-07-13T07:49:14;10.50;;;9.35;;
6223;SDS011;3145;42.726;23.342;2023-07-13T07:51:41;10.57;;;9.50;;
6223;SDS011;3145;42.726;23.342;2023-07-13T07:54:09;14.50;;;9.52;;
6223;SDS011;3145;42.726;23.342;2023-07-13T07:56:36;11.40;;;9.38;;
6223;SDS011;3145;42.726;23.342;2023-07-13T07:59:03;14.05;;;8.80;;
6223;SDS011;3145;42.726;23.342;2023-07-13T08:01:29;12.77;;;9.38;;
6223;SDS011;3145;42.726;23.342;2023-07-13T08:03:56;14.02;;;10.32;;
6223;SDS011;3145;42.726;23.342;2023-07-13T08:06:23;13.63;;;10.57;;
6223;SDS011;3145;42.726;23.342;2023-07-13T08:08:50;15.35;;;10.40;;
6223;SDS011;3145;42.726;23.342;2023-07-13T08:11:18;11.25;;;9.30;;
6223;SDS011;3145;42.726;23.342;2023-07-13T08:13:47;14.70;;;10.18;;
6223;SDS011;3145;42.726;23.342;2023-07-13T08:16:14;13.80;;;9.25;;
6223;SDS011;3145;42.726;23.342;2023-07-13T08:18:41;14.60;;;9.90;;
6223;SDS011;3145;42.726;23.342;2023-07-13T08:21:08;13.85;;;9.95;;
6223;SDS011;3145;42.726;23.342;2023-07-13T08:23:35;15.77;;;9.68;;
6223;SDS011;3145;42.726;23.342;2023-07-13T08:26:02;16.70;;;9.85;;
6223;SDS011;3145;42.726;23.342;2023-07-13T08:28:31;17.00;;;9.48;;
6223;SDS011;3145;42.726;23.342;2023-07-13T08:31:00;13.48;;;8.93;;
6223;SDS011;3145;42.726;23.342;2023-07-13T08:33:27;13.20;;;9.65;;
6223;SDS011;3145;42.726;23.342;2023-07-13T08:35:53;13.30;;;9.35;;
6223;SDS011;3145;42.726;23.342;2023-07-13T08:38:20;13.23;;;9.00;;
6223;SDS011;3145;42.726;23.342;2023-07-13T08:40:49;18.10;;;9.85;;
6223;SDS011;3145;42.726;23.342;2023-07-13T08:43:18;13.52;;;9.23;;
6223;SDS011;3145;42.726;23.342;2023-07-13T08:45:56;13.73;;;9.38;;
6223;SDS011;3145;42.726;23.342;2023-07-13T08:48:27;11.45;;;9.05;;
6223;SDS011;3145;42.726;23.342;2023-07-13T08:50:58;9.50;;;8.55;;
6223;SDS011;3145;42.726;23.342;2023-07-13T08:53:30;12.05;;;9.23;;
6223;SDS011;3145;42.726;23.342;2023-07-13T08:56:02;9.75;;;8.75;;
6223;SDS011;3145;42.726;23.342;2023-07-13T08:58:31;13.52;;;9.35;;
6223;SDS011;3145;42.726;23.342;2023-07-13T09:01:02;15.85;;;9.75;;
6223;SDS011;3145;42.726;23.342;2023-07-13T09:03:38;11.35;;;9.35;;
6223;SDS011;3145;42.726;23.342;2023-07-13T09:06:11;13.95;;;9.10;;
6223;SDS011;3145;42.726;23.342;2023-07-13T09:08:47;22.15;;;10.30;;
6223;SDS011;3145;42.726;23.342;2023-07-13T09:14:14;19.48;;;9.80;;
6223;SDS011;3145;42.726;23.342;2023-07-13T09:17:01;11.90;;;9.63;;
6223;SDS011;3145;42.726;23.342;2023-07-13T09:19:31;13.13;;;8.77;;
6223;SDS011;3145;42.726;23.342;2023-07-13T09:21:59;11.35;;;8.82;;
6223;SDS011;3145;42.726;23.342;2023-07-13T09:24:29;15.38;;;8.35;;
6223;SDS011;3145;42.726;23.342;2023-07-13T09:27:03;13.13;;;8.52;;
6223;SDS011;3145;42.726;23.342;2023-07-13T09:29:38;12.45;;;7.90;;
6223;SDS011;3145;42.726;23.342;2023-07-13T09:32:13;14.30;;;7.78;;
6223;SDS011;3145;42.726;23.342;2023-07-13T09:34:49;14.52;;;7.68;;
6223;SDS011;3145;42.726;23.342;2023-07-13T09:37:17;8.05;;;7.25;;
6223;SDS011;3145;42.726;23.342;2023-07-13T09:39:46;8.75;;;7.85;;
6223;SDS011;3145;42.726;23.342;2023-07-13T09:42:16;10.82;;;7.45;;
6223;SDS011;3145;42.726;23.342;2023-07-13T09:44:51;11.23;;;7.47;;
6223;SDS011;3145;42.726;23.342;2023-07-13T09:47:21;9.73;;;7.70;;
6223;SDS011;3145;42.726;23.342;2023-07-13T09:49:55;10.57;;;7.78;;
6223;SDS011;3145;42.726;23.342;2023-07-13T09:52:23;11.77;;;7.70;;
6223;SDS011;3145;42.726;23.342;2023-07-13T09:54:51;8.57;;;7.47;;
6223;SDS011;3145;42.726;23.342;2023-07-13T09:57:22;9.70;;;6.95;;
6223;SDS011;3145;42.726;23.342;2023-07-13T09:59:51;10.13;;;7.53;;
6223;SDS011;3145;42.726;23.342;2023-07-13T10:02:30;7.32;;;6.63;;
6223;SDS011;3145;42.726;23.342;2023-07-13T10:04:59;8.23;;;6.40;;
6223;SDS011;3145;42.726;23.342;2023-07-13T10:07:28;11.77;;;6.43;;
6223;SDS011;3145;42.726;23.342;2023-07-13T10:09:56;13.55;;;7.32;;
6223;SDS011;3145;42.726;23.342;2023-07-13T10:12:28;9.80;;;7.53;;
6223;SDS011;3145;42.726;23.342;2023-07-13T10:14:56;16.88;;;7.88;;
6223;SDS011;3145;42.726;23.342;2023-07-13T10:17:27;10.95;;;7.22;;
6223;SDS011;3145;42.726;23.342;2023-07-13T10:19:59;10.02;;;5.43;;
6223;SDS011;3145;42.726;23.342;2023-07-13T10:22:31;7.75;;;5.20;;
6223;SDS011;3145;42.726;23.342;2023-07-13T10:25:08;8.43;;;5.55;;
6223;SDS011;3145;42.726;23.342;2023-07-13T10:27:41;7.40;;;4.53;;
6223;SDS011;3145;42.726;23.342;2023-07-13T10:30:11;9.43;;;4.45;;
6223;SDS011;3145;42.726;23.342;2023-07-13T10:32:43;8.90;;;4.40;;
6223;SDS011;3145;42.726;23.342;2023-07-13T10:35:11;8.43;;;4.28;;
6223;SDS011;3145;42.726;23.342;2023-07-13T10:37:43;8.27;;;4.50;;
6223;SDS011;3145;42.726;23.342;2023-07-13T10:40:16;8.07;;;4.88;;
6223;SDS011;3145;42.726;23.342;2023-07-13T10:42:49;7.72;;;4.28;;
6223;SDS011;3145;42.726;23.342;2023-07-13T10:45:21;6.30;;;4.10;;
6223;SDS011;3145;42.726;23.342;2023-07-13T10:47:51;10.07;;;4.20;;
6223;SDS011;3145;42.726;23.342;2023-07-13T10:50:21;6.15;;;4.10;;
6223;SDS011;3145;42.726;23.342;2023-07-13T10:52:51;9.52;;;4.60;;
6223;SDS011;3145;42.726;23.342;2023-07-13T10:58:28;6.53;;;4.35;;
6223;SDS011;3145;42.726;23.342;2023-07-13T11:01:03;7.40;;;4.70;;
6223;SDS011;3145;42.726;23.342;2023-07-13T11:06:33;3.85;;;3.50;;
6223;SDS011;3145;42.726;23.342;2023-07-13T11:09:17;4.43;;;4.03;;
6223;SDS011;3145;42.726;23.342;2023-07-13T11:11:45;7.07;;;4.38;;
6223;SDS011;3145;42.726;23.342;2023-07-13T11:14:29;6.82;;;4.03;;
6223;SDS011;3145;42.726;23.342;2023-07-13T11:17:00;8.10;;;4.15;;
6223;SDS011;3145;42.726;23.342;2023-07-13T11:19:53;8.65;;;4.28;;
6223;SDS011;3145;42.726;23.342;2023-07-13T11:22:41;8.15;;;3.85;;
6223;SDS011;3145;42.726;23.342;2023-07-13T11:28:16;5.13;;;3.75;;
6223;SDS011;3145;42.726;23.342;2023-07-13T11:30:48;5.85;;;3.60;;
6223;SDS011;3145;42.726;23.342;2023-07-13T11:33:17;5.75;;;4.10;;
6223;SDS011;3145;42.726;23.342;2023-07-13T11:38:32;8.63;;;3.72;;
6223;SDS011;3145;42.726;23.342;2023-07-13T11:41:03;10.15;;;4.03;;
6223;SDS011;3145;42.726;23.342;2023-07-13T11:43:31;12.45;;;4.65;;
6223;SDS011;3145;42.726;23.342;2023-07-13T11:46:11;6.28;;;4.10;;
6223;SDS011;3145;42.726;23.342;2023-07-13T11:48:40;11.82;;;3.95;;
6223;SDS011;3145;42.726;23.342;2023-07-13T11:51:10;5.95;;;4.38;;
6223;SDS011;3145;42.726;23.342;2023-07-13T11:53:45;5.97;;;4.45;;
6223;SDS011;3145;42.726;23.342;2023-07-13T11:56:13;7.15;;;4.25;;
6223;SDS011;3145;42.726;23.342;2023-07-13T11:58:40;5.00;;;4.10;;
6223;SDS011;3145;42.726;23.342;2023-07-13T12:01:09;10.63;;;4.10;;
6223;SDS011;3145;42.726;23.342;2023-07-13T12:03:46;6.13;;;4.57;;
6223;SDS011;3145;42.726;23.342;2023-07-13T12:06:23;8.75;;;4.30;;
6223;SDS011;3145;42.726;23.342;2023-07-13T12:08:55;9.40;;;4.22;;
6223;SDS011;3145;42.726;23.342;2023-07-13T12:11:23;9.07;;;3.90;;
6223;SDS011;3145;42.726;23.342;2023-07-13T12:13:50;4.75;;;4.38;;
6223;SDS011;3145;42.726;23.342;2023-07-13T12:16:19;9.10;;;4.60;;
6223;SDS011;3145;42.726;23.342;2023-07-13T12:18:52;8.20;;;4.53;;
6223;SDS011;3145;42.726;23.342;2023-07-13T12:21:29;5.25;;;4.22;;
6223;SDS011;3145;42.726;23.342;2023-07-13T12:23:59;10.05;;;5.20;;
6223;SDS011;3145;42.726;23.342;2023-07-13T12:26:28;6.90;;;4.78;;
6223;SDS011;3145;42.726;23.342;2023-07-13T12:28:56;8.20;;;4.47;;
6223;SDS011;3145;42.726;23.342;2023-07-13T12:31:31;8.80;;;5.30;;
6223;SDS011;3145;42.726;23.342;2023-07-13T12:34:02;13.70;;;4.85;;
6223;SDS011;3145;42.726;23.342;2023-07-13T12:36:36;9.95;;;4.95;;
6223;SDS011;3145;42.726;23.342;2023-07-13T12:39:11;8.70;;;4.63;;
6223;SDS011;3145;42.726;23.342;2023-07-13T12:41:40;11.32;;;4.88;;
6223;SDS011;3145;42.726;23.342;2023-07-13T12:44:10;5.30;;;4.80;;
6223;SDS011;3145;42.726;23.342;2023-07-13T12:46:38;8.90;;;4.28;;
6223;SDS011;3145;42.726;23.342;2023-07-13T12:49:05;5.78;;;4.22;;
6223;SDS011;3145;42.726;23.342;2023-07-13T12:51:35;7.13;;;4.57;;
6223;SDS011;3145;42.726;23.342;2023-07-13T12:54:13;8.50;;;4.18;;
6223;SDS011;3145;42.726;23.342;2023-07-13T12:56:43;7.63;;;4.05;;
6223;SDS011;3145;42.726;23.342;2023-07-13T12:59:17;11.10;;;4.20;;
6223;SDS011;3145;42.726;23.342;2023-07-13T13:01:45;7.65;;;4.20;;
6223;SDS011;3145;42.726;23.342;2023-07-13T13:04:14;7.13;;;4.00;;
6223;SDS011;3145;42.726;23.342;2023-07-13T13:06:43;4.78;;;4.28;;
6223;SDS011;3145;42.726;23.342;2023-07-13T13:09:12;6.97;;;4.07;;
6223;SDS011;3145;42.726;23.342;2023-07-13T13:11:39;5.80;;;4.18;;
6223;SDS011;3145;42.726;23.342;2023-07-13T13:14:07;9.20;;;4.43;;
6223;SDS011;3145;42.726;23.342;2023-07-13T13:16:35;8.18;;;4.32;;
6223;SDS011;3145;42.726;23.342;2023-07-13T13:19:10;18.13;;;5.18;;
6223;SDS011;3145;42.726;23.342;2023-07-13T13:21:40;10.95;;;4.30;;
6223;SDS011;3145;42.726;23.342;2023-07-13T13:24:11;10.43;;;4.43;;
6223;SDS011;3145;42.726;23.342;2023-07-13T13:26:39;9.10;;;4.55;;
6223;SDS011;3145;42.726;23.342;2023-07-13T13:29:10;5.70;;;4.43;;
6223;SDS011;3145;42.726;23.342;2023-07-13T13:31:40;6.60;;;3.83;;
6223;SDS011;3145;42.726;23.342;2023-07-13T13:34:07;8.57;;;4.18;;
6223;SDS011;3145;42.726;23.342;2023-07-13T13:36:35;8.05;;;4.25;;
6223;SDS011;3145;42.726;23.342;2023-07-13T13:39:02;10.35;;;4.25;;
6223;SDS011;3145;42.726;23.342;2023-07-13T13:41:33;6.55;;;6.00;;
6223;SDS011;3145;42.726;23.342;2023-07-13T13:43:59;11.35;;;4.65;;
6223;SDS011;3145;42.726;23.342;2023-07-13T13:46:26;8.20;;;5.55;;
6223;SDS011;3145;42.726;23.342;2023-07-13T13:48:55;10.98;;;4.60;;
6223;SDS011;3145;42.726;23.342;2023-07-13T13:51:22;8.93;;;4.07;;
6223;SDS011;3145;42.726;23.342;2023-07-13T13:53:50;6.03;;;3.95;;
6223;SDS011;3145;42.726;23.342;2023-07-13T13:56:18;6.50;;;4.15;;
6223;SDS011;3145;42.726;23.342;2023-07-13T13:58:47;6.50;;;4.05;;
6223;SDS011;3145;42.726;23.342;2023-07-13T14:01:16;5.47;;;4.07;;
6223;SDS011;3145;42.726;23.342;2023-07-13T14:03:45;6.85;;;3.88;;
6223;SDS011;3145;42.726;23.342;2023-07-13T14:06:13;7.32;;;4.18;;
6223;SDS011;3145;42.726;23.342;2023-07-13T14:08:41;4.90;;;4.13;;
6223;SDS011;3145;42.726;23.342;2023-07-13T14:11:09;10.80;;;3.80;;
6223;SDS011;3145;42.726;23.342;2023-07-13T14:13:38;9.93;;;3.92;;
6223;SDS011;3145;42.726;23.342;2023-07-13T14:16:11;12.48;;;4.45;;
6223;SDS011;3145;42.726;23.342;2023-07-13T14:18:38;9.93;;;3.92;;
6223;SDS011;3145;42.726;23.342;2023-07-13T14:21:08;10.40;;;4.03;;
6223;SDS011;3145;42.726;23.342;2023-07-13T14:23:38;8.05;;;4.20;;
6223;SDS011;3145;42.726;23.342;2023-07-13T14:26:08;10.18;;;4.25;;
6223;SDS011;3145;42.726;23.342;2023-07-13T14:28:37;6.97;;;4.05;;
6223;SDS011;3145;42.726;23.342;2023-07-13T14:31:07;11.35;;;4.57;;
6223;SDS011;3145;42.726;23.342;2023-07-13T14:33:36;6.55;;;3.90;;
6223;SDS011;3145;42.726;23.342;2023-07-13T14:36:02;10.82;;;4.97;;
6223;SDS011;3145;42.726;23.342;2023-07-13T14:38:39;7.18;;;4.15;;
6223;SDS011;3145;42.726;23.342;2023-07-13T14:41:07;7.20;;;4.47;;
6223;SDS011;3145;42.726;23.342;2023-07-13T14:43:34;7.90;;;4.65;;
6223;SDS011;3145;42.726;23.342;2023-07-13T14:46:01;10.90;;;4.88;;
6223;SDS011;3145;42.726;23.342;2023-07-13T14:48:29;4.30;;;3.83;;
6223;SDS011;3145;42.726;23.342;2023-07-13T14:50:58;8.18;;;4.38;;
6223;SDS011;3145;42.726;23.342;2023-07-13T14:53:26;8.55;;;4.18;;
6223;SDS011;3145;42.726;23.342;2023-07-13T14:55:53;6.05;;;5.15;;
6223;SDS011;3145;42.726;23.342;2023-07-13T14:58:20;10.68;;;4.15;;
6223;SDS011;3145;42.726;23.342;2023-07-13T15:00:47;6.18;;;4.00;;
6223;SDS011;3145;42.726;23.342;2023-07-13T15:03:21;7.55;;;4.43;;
6223;SDS011;3145;42.726;23.342;2023-07-13T15:05:51;8.10;;;4.40;;
6223;SDS011;3145;42.726;23.342;2023-07-13T15:08:20;6.47;;;4.45;;
6223;SDS011;3145;42.726;23.342;2023-07-13T15:10:47;6.57;;;4.50;;
6223;SDS011;3145;42.726;23.342;2023-07-13T15:13:14;5.85;;;4.35;;
6223;SDS011;3145;42.726;23.342;2023-07-13T15:15:43;5.53;;;4.43;;